This is the latest recevied weather packets stored in our database for station/object K6POO-1. If no packets are shown the sender has not sent any weather packets the latest 10 day(s).
| Time | Temp. | Humidity | Pressure | Rain* | Wind** | Luminosity | Snow |
|---|---|---|---|---|---|---|---|
| 1787882481 | 20° C | 68% | 1013.8 hPa | 0 mm | - | 38 W/m² | - |
| 1787882176 | 20° C | 67% | 1013.9 hPa | 0 mm | - | 44 W/m² | - |
| 1787881876 | 20° C | 67% | 1014.2 hPa | 0 mm | - | 51 W/m² | - |
| 1787881571 | 20° C | 67% | 1014.2 hPa | 0 mm | - | 58 W/m² | - |
| 1787881268 | 20° C | 67% | 1014.2 hPa | 0 mm | - | 65 W/m² | - |
| 1787880963 | 20.56° C | 66% | 1014.2 hPa | 0 mm | - | 70 W/m² | - |
| 1787880662 | 20.56° C | 64% | 1014.3 hPa | 0 mm | - | 76 W/m² | - |
| 1787880360 | 20.56° C | 61% | 1014.5 hPa | 0 mm | - | 83 W/m² | - |
| 1787880055 | 21.11° C | 59% | 1014.3 hPa | 0 mm | - | 97 W/m² | - |
| 1787879751 | 21.11° C | 60% | 1014.5 hPa | 0 mm | - | 113 W/m² | - |
| 1787879445 | 21.11° C | 59% | 1014.6 hPa | 0 mm | - | 126 W/m² | - |
| 1787879141 | 21.67° C | 59% | 1014.8 hPa | 0 mm | - | 135 W/m² | - |
| 1787878838 | 21.67° C | 59% | 1014.8 hPa | 0 mm | - | 146 W/m² | - |
| 1787878537 | 21.67° C | 58% | 1014.4 hPa | 0 mm | - | 138 W/m² | - |
| 1787878232 | 21.67° C | 58% | 1014.6 hPa | 0 mm | - | 146 W/m² | - |
| 1787877928 | 22.22° C | 57% | 1014.5 hPa | 0 mm | - | 153 W/m² | - |
| 1787877623 | 22.22° C | 56% | 1014.7 hPa | 0 mm | - | 163 W/m² | - |
| 1787877319 | 22.22° C | 57% | 1014.7 hPa | 0 mm | - | 198 W/m² | - |
| 1787877014 | 22.22° C | 58% | 1014.5 hPa | 0 mm | - | 187 W/m² | - |
| 1787876710 | 22.22° C | 61% | 1014.7 hPa | 0 mm | - | 231 W/m² | - |
| 1787876404 | 22.78° C | 54% | 1014.8 hPa | 0 mm | - | 227 W/m² | - |
| 1787876103 | 22.78° C | 57% | 1014.6 hPa | 0 mm | - | 259 W/m² | - |
| 1787875798 | 22.78° C | 55% | 1014.9 hPa | 0 mm | - | 253 W/m² | - |
| 1787875497 | 22.22° C | 58% | 1014.9 hPa | 0 mm | - | 242 W/m² | - |
| 1787875195 | 22.22° C | 62% | 1014.9 hPa | 0 mm | - | 227 W/m² | - |
* Rain latest hour (hover to see other rain measurements)
** Current wind speed in m/s (hover to see current wind gust speed)